Time;durP1;ratioP1;P1;durP2;ratioP2;P2;SDS_P1;SDS_P2;PMS_P1;PMS_P2;Temp;Humidity;BMP_temperature;BMP_pressure;BME280_temperature;BME280_humidity;BME280_pressure;Samples;Min_cycle;Max_cycle;Signal;HPM_P1;HPM_P2
2021/12/07 00:00:30;;;;;;;;;;;15.90;43.60;14.70;100052.00;;;;5084063;28;20349;-61
2021/12/07 00:03:16;;;;;;;;;;;15.90;43.60;14.70;100050.00;;;;5050263;28;19976;-62
2021/12/07 00:06:02;;;;;;;;;;;15.90;43.60;14.70;100050.00;;;;5053517;28;20306;-62
2021/12/07 00:08:54;;;;;;;;;;;15.90;43.60;14.70;100053.00;;;;5073460;28;20030;-62
2021/12/07 00:11:40;;;;;;;;;;;15.90;43.60;14.70;100051.00;;;;5059810;28;19916;-61
2021/12/07 00:14:33;;;;;;;;;;;15.90;43.70;14.70;100052.00;;;;5066864;28;20011;-61
2021/12/07 00:17:19;;;;;;;;;;;15.90;43.60;14.70;100064.00;;;;5060075;28;19920;-62
2021/12/07 00:20:08;;;;;;;;;;;15.90;43.60;14.70;100060.00;;;;5045107;28;19966;-62
2021/12/07 00:22:56;;;;;;;;;;;15.90;43.60;14.70;100060.00;;;;5061767;28;19920;-61
2021/12/07 00:25:42;;;;;;;;;;;15.90;43.60;14.70;100059.00;;;;5071332;28;19935;-61
2021/12/07 00:28:28;;;;;;;;;;;15.90;43.60;14.70;100051.00;;;;5089434;28;19917;-61
2021/12/07 00:31:26;;;;;;;;;;;15.80;43.50;14.70;100061.00;;;;5084425;28;20255;-61
2021/12/07 00:36:58;;;;;;;;;;;15.80;43.60;14.70;100057.00;;;;5079928;28;19962;-62
2021/12/07 00:39:44;;;;;;;;;;;15.80;43.60;14.70;100059.00;;;;5062631;28;19929;-61
2021/12/07 00:42:31;;;;;;;;;;;15.80;43.60;14.70;100065.00;;;;5071430;28;19920;-62
2021/12/07 00:45:20;;;;;;;;;;;15.80;43.60;14.70;100075.00;;;;5062943;28;20296;-62
2021/12/07 00:48:06;;;;;;;;;;;15.80;43.60;14.60;100061.00;;;;5056604;28;19920;-62
2021/12/07 00:50:54;;;;;;;;;;;15.80;43.60;14.60;100061.00;;;;5076090;28;19924;-61
2021/12/07 00:53:40;;;;;;;;;;;15.80;43.60;14.60;100060.00;;;;5057225;28;19971;-61
2021/12/07 00:56:27;;;;;;;;;;;15.80;43.60;14.60;100066.00;;;;5068175;28;20263;-62
2021/12/07 00:59:13;;;;;;;;;;;15.80;43.60;14.60;100058.00;;;;5063311;28;19924;-61
2021/12/07 01:01:59;;;;;;;;;;;15.80;43.70;14.60;100066.00;;;;5075738;28;19919;-62
2021/12/07 01:04:52;;;;;;;;;;;15.80;43.70;14.60;100063.00;;;;5081051;28;20031;-61
2021/12/07 01:25:57;;;;;;;;;;;15.70;43.70;14.60;100081.00;;;;5068581;28;19928;-61
2021/12/07 01:28:45;;;;;;;;;;;15.70;43.80;14.60;100088.00;;;;5073289;28;19923;-61
2021/12/07 01:31:59;;;;;;;;;;;15.70;43.80;14.60;100084.00;;;;5061531;28;19921;-61
2021/12/07 01:38:03;;;;;;;;;;;15.70;43.80;14.60;100093.00;;;;5071363;28;20362;-61
2021/12/07 02:01:25;;;;;;;;;;;15.80;43.80;14.60;100114.00;;;;5067385;28;19916;-61
2021/12/07 02:04:11;;;;;;;;;;;15.70;43.80;14.60;100115.00;;;;5057685;28;19993;-62
2021/12/07 02:06:57;;;;;;;;;;;15.80;43.90;14.60;100116.00;;;;5066509;28;19930;-61
2021/12/07 02:09:48;;;;;;;;;;;15.80;43.80;14.60;100117.00;;;;5056372;28;20002;-62
2021/12/07 02:12:54;;;;;;;;;;;15.70;43.80;14.60;100120.00;;;;5079832;28;19924;-61
2021/12/07 02:15:40;;;;;;;;;;;15.60;43.70;14.60;100129.00;;;;5073813;28;19939;-61
2021/12/07 02:18:26;;;;;;;;;;;15.80;43.90;14.60;100122.00;;;;5074380;28;20210;-62
2021/12/07 02:21:23;;;;;;;;;;;15.80;43.80;14.60;100126.00;;;;5061595;28;20374;-61
2021/12/07 02:24:09;;;;;;;;;;;15.80;43.80;14.60;100125.00;;;;5065998;28;19940;-61
2021/12/07 02:26:56;;;;;;;;;;;15.80;43.90;14.60;100134.00;;;;5059028;28;19920;-61
2021/12/07 02:29:42;;;;;;;;;;;15.80;43.90;14.60;100134.00;;;;5067039;28;19923;-61
2021/12/07 02:32:28;;;;;;;;;;;15.80;43.90;14.60;100127.00;;;;5070885;28;19917;-61
2021/12/07 02:35:22;;;;;;;;;;;15.80;43.90;14.60;100121.00;;;;5066306;28;19924;-62
2021/12/07 02:38:08;;;;;;;;;;;15.80;43.90;14.60;100133.00;;;;5077156;28;20447;-61
2021/12/07 02:40:54;;;;;;;;;;;15.80;43.90;14.60;100136.00;;;;5059759;28;19923;-62
2021/12/07 02:43:40;;;;;;;;;;;15.80;43.90;14.60;100133.00;;;;5075276;28;20156;-61
2021/12/07 02:46:26;;;;;;;;;;;15.80;43.90;14.60;100147.00;;;;5055147;28;19928;-62
2021/12/07 02:49:12;;;;;;;;;;;15.80;43.90;14.60;100147.00;;;;5062593;28;19923;-61
2021/12/07 02:51:59;;;;;;;;;;;15.80;43.90;14.60;100145.00;;;;5071158;28;20494;-62
2021/12/07 02:54:47;;;;;;;;;;;15.80;43.90;14.60;100144.00;;;;5084942;28;19916;-61
2021/12/07 02:57:34;;;;;;;;;;;15.80;43.90;14.60;100141.00;;;;5069019;28;19938;-61
2021/12/07 03:00:25;;;;;;;;;;;15.80;43.90;14.60;100144.00;;;;5065587;28;19924;-62
2021/12/07 03:03:12;;;;;;;;;;;15.80;43.90;14.60;100151.00;;;;5077472;28;20273;-62
2021/12/07 03:27:02;;;;;;;;;;;15.70;43.90;14.60;100168.00;;;;5067293;28;19963;-61
2021/12/07 03:29:49;;;;;;;;;;;15.70;44.00;14.60;100164.00;;;;5064149;28;19990;-61
2021/12/07 03:32:35;;;;;;;;;;;15.70;44.60;14.60;100172.00;;;;5060683;28;19952;-61
2021/12/07 03:35:21;;;;;;;;;;;15.80;44.00;14.60;100181.00;;;;5069838;28;19920;-62
2021/12/07 03:38:07;;;;;;;;;;;15.70;43.90;14.60;100182.00;;;;5066231;28;20016;-62
2021/12/07 03:40:53;;;;;;;;;;;15.70;43.90;14.60;100192.00;;;;5060206;28;19992;-61
2021/12/07 03:43:40;;;;;;;;;;;15.70;43.90;14.60;100190.00;;;;5070790;28;20413;-61
2021/12/07 03:46:26;;;;;;;;;;;15.80;44.00;14.60;100194.00;;;;5084748;28;19925;-61
2021/12/07 03:49:12;;;;;;;;;;;15.80;43.90;14.60;100187.00;;;;5060623;28;20366;-61
2021/12/07 03:51:58;;;;;;;;;;;15.80;43.90;14.60;100192.00;;;;5060725;28;19924;-61
2021/12/07 03:54:44;;;;;;;;;;;15.70;43.90;14.60;100196.00;;;;5057545;28;19916;-61
2021/12/07 03:57:30;;;;;;;;;;;15.70;43.90;14.60;100196.00;;;;5062649;28;20321;-62
2021/12/07 04:00:18;;;;;;;;;;;15.70;43.90;14.60;100198.00;;;;5052400;28;20007;-61
2021/12/07 04:03:14;;;;;;;;;;;15.70;43.90;14.50;100202.00;;;;5073639;28;19916;-61
2021/12/07 04:06:04;;;;;;;;;;;15.70;44.00;14.50;100206.00;;;;5051444;28;19966;-61
2021/12/07 04:08:50;;;;;;;;;;;15.70;44.00;14.50;100205.00;;;;5061469;28;19920;-61
2021/12/07 04:11:36;;;;;;;;;;;15.70;43.90;14.50;100213.00;;;;5074454;28;19955;-61
2021/12/07 04:14:22;;;;;;;;;;;15.70;43.90;14.50;100225.00;;;;5054131;28;19967;-61
2021/12/07 04:17:09;;;;;;;;;;;15.70;43.90;14.50;100226.00;;;;5057533;28;20007;-62
2021/12/07 04:19:55;;;;;;;;;;;15.70;43.90;14.50;100239.00;;;;5076397;28;20373;-62
2021/12/07 04:22:41;;;;;;;;;;;15.70;43.90;14.50;100236.00;;;;5059063;28;19925;-61
2021/12/07 04:25:27;;;;;;;;;;;15.70;44.00;14.50;100241.00;;;;5058149;28;20204;-61
2021/12/07 04:28:13;;;;;;;;;;;15.60;43.90;14.50;100243.00;;;;5080778;28;20270;-62
2021/12/07 04:31:00;;;;;;;;;;;15.70;44.00;14.50;100248.00;;;;5047868;28;20436;-62
2021/12/07 04:33:46;;;;;;;;;;;15.60;43.90;14.50;100243.00;;;;5072214;28;20388;-62
2021/12/07 04:36:32;;;;;;;;;;;15.60;43.90;14.50;100240.00;;;;5066955;28;19924;-61
2021/12/07 04:39:18;;;;;;;;;;;15.60;43.90;14.50;100240.00;;;;5082583;28;20309;-62
2021/12/07 04:42:04;;;;;;;;;;;15.60;44.00;14.50;100239.00;;;;5082276;27;19958;-62
2021/12/07 04:44:54;;;;;;;;;;;15.60;43.90;14.50;100244.00;;;;5045441;28;19916;-61
2021/12/07 04:48:05;;;;;;;;;;;15.60;43.90;14.50;100244.00;;;;5058173;28;19947;-61
2021/12/07 05:00:07;;;;;;;;;;;15.60;44.00;14.50;100248.00;;;;5067750;28;19920;-62
2021/12/07 05:03:00;;;;;;;;;;;15.60;44.00;14.50;100247.00;;;;5070294;28;20286;-61
2021/12/07 05:05:50;;;;;;;;;;;15.60;44.00;14.50;100248.00;;;;5065545;28;20014;-61
2021/12/07 05:08:43;;;;;;;;;;;15.60;44.00;14.50;100256.00;;;;5079667;28;20305;-62
2021/12/07 05:14:59;;;;;;;;;;;15.60;44.00;14.50;100276.00;;;;5009432;28;20429;-61
2021/12/07 05:18:05;;;;;;;;;;;15.60;44.10;14.50;100276.00;;;;5047668;28;20027;-61
2021/12/07 05:24:06;;;;;;;;;;;15.60;44.00;14.50;100280.00;;;;5065613;28;19917;-62
2021/12/07 05:38:52;;;;;;;;;;;15.60;44.00;14.50;100302.00;;;;5063013;28;19920;-61
2021/12/07 05:41:38;;;;;;;;;;;15.60;44.00;14.50;100302.00;;;;5062998;28;19916;-61
2021/12/07 05:44:24;;;;;;;;;;;15.60;44.00;14.50;100305.00;;;;5056244;28;19965;-61
2021/12/07 05:47:10;;;;;;;;;;;15.60;44.00;14.50;100322.00;;;;5063272;28;19972;-62
2021/12/07 05:49:56;;;;;;;;;;;15.60;44.00;14.50;100320.00;;;;5057860;28;19917;-62
2021/12/07 05:52:43;;;;;;;;;;;15.60;44.00;14.50;100324.00;;;;5065073;28;19916;-62
2021/12/07 05:55:29;;;;;;;;;;;15.60;44.00;14.50;100316.00;;;;5064706;28;20255;-61
2021/12/07 05:58:15;;;;;;;;;;;15.60;44.00;14.50;100324.00;;;;5072343;28;19916;-61
2021/12/07 06:01:01;;;;;;;;;;;15.60;44.00;14.50;100337.00;;;;5078141;28;19966;-62
2021/12/07 06:03:47;;;;;;;;;;;15.60;44.00;14.50;100348.00;;;;5067832;28;19916;-62
2021/12/07 06:06:33;;;;;;;;;;;15.60;44.00;14.50;100353.00;;;;5047691;28;19920;-62
2021/12/07 06:09:19;;;;;;;;;;;15.60;44.00;14.50;100356.00;;;;5085519;28;20409;-61
2021/12/07 06:12:06;;;;;;;;;;;15.60;44.00;14.50;100358.00;;;;5057983;28;19924;-61
2021/12/07 06:14:55;;;;;;;;;;;15.60;44.00;14.50;100353.00;;;;5060802;28;19923;-61
2021/12/07 06:17:41;;;;;;;;;;;15.60;44.00;14.40;100356.00;;;;5067523;28;19920;-61
2021/12/07 06:20:27;;;;;;;;;;;15.60;44.00;14.40;100360.00;;;;5050509;28;19917;-62
2021/12/07 06:23:17;;;;;;;;;;;15.60;44.00;14.40;100371.00;;;;5060978;28;20026;-61
2021/12/07 06:26:03;;;;;;;;;;;15.60;44.00;14.40;100374.00;;;;5043944;28;19925;-62
2021/12/07 06:28:49;;;;;;;;;;;15.60;44.00;14.40;100385.00;;;;5068345;28;19939;-62
2021/12/07 06:31:35;;;;;;;;;;;15.60;44.00;14.40;100390.00;;;;5067479;28;19920;-62
2021/12/07 06:34:21;;;;;;;;;;;15.60;44.00;14.40;100386.00;;;;5055326;28;19971;-61
2021/12/07 06:37:07;;;;;;;;;;;15.60;44.00;14.50;100394.00;;;;5076305;28;19924;-62
2021/12/07 06:39:53;;;;;;;;;;;15.60;44.00;14.40;100397.00;;;;5053374;28;19925;-61
2021/12/07 06:42:40;;;;;;;;;;;15.50;44.00;14.50;100412.00;;;;5059660;28;19916;-61
2021/12/07 06:45:27;;;;;;;;;;;15.60;44.00;14.40;100401.00;;;;5058977;28;19927;-62
2021/12/07 06:48:13;;;;;;;;;;;15.60;44.00;14.50;100407.00;;;;5064746;28;20312;-62
2021/12/07 06:51:00;;;;;;;;;;;15.60;44.00;14.40;100398.00;;;;5055510;28;19924;-61
2021/12/07 06:53:49;;;;;;;;;;;15.60;44.00;14.50;100407.00;;;;5051315;28;20399;-61
2021/12/07 06:56:35;;;;;;;;;;;15.60;44.00;14.50;100408.00;;;;5066026;28;19927;-62
2021/12/07 06:59:21;;;;;;;;;;;15.60;44.10;14.40;100407.00;;;;5057442;28;19937;-61
2021/12/07 07:02:07;;;;;;;;;;;15.60;44.00;14.50;100418.00;;;;5068101;28;20296;-61
2021/12/07 07:04:54;;;;;;;;;;;15.60;44.10;14.40;100432.00;;;;5063361;28;20242;-62
2021/12/07 07:07:40;;;;;;;;;;;15.60;44.10;14.40;100430.00;;;;5054916;28;19966;-62
2021/12/07 07:10:26;;;;;;;;;;;15.60;44.10;14.50;100428.00;;;;5056430;28;19970;-61
2021/12/07 07:13:12;;;;;;;;;;;15.60;44.00;14.50;100435.00;;;;5083606;28;19962;-62
2021/12/07 07:15:59;;;;;;;;;;;15.60;44.10;14.50;100430.00;;;;5060096;28;19916;-61
2021/12/07 07:18:45;;;;;;;;;;;15.60;44.10;14.50;100427.00;;;;5065478;28;19916;-62
2021/12/07 07:21:31;;;;;;;;;;;15.60;44.10;14.50;100431.00;;;;5070563;28;19920;-61
2021/12/07 07:24:17;;;;;;;;;;;15.60;44.00;14.50;100433.00;;;;5058693;28;19922;-61
2021/12/07 07:27:04;;;;;;;;;;;15.60;44.10;14.50;100430.00;;;;5061560;28;20042;-61
2021/12/07 07:29:50;;;;;;;;;;;15.60;44.00;14.50;100436.00;;;;5065702;28;20063;-62
2021/12/07 07:32:36;;;;;;;;;;;15.60;44.00;14.50;100440.00;;;;5071312;28;19921;-62
2021/12/07 07:35:22;;;;;;;;;;;15.60;44.00;14.50;100443.00;;;;5055448;28;19916;-61
2021/12/07 07:38:08;;;;;;;;;;;15.60;44.00;14.50;100447.00;;;;5064185;28;20298;-61
2021/12/07 07:40:54;;;;;;;;;;;15.60;44.00;14.50;100455.00;;;;5054991;28;20397;-62
2021/12/07 07:43:41;;;;;;;;;;;15.60;44.00;14.50;100464.00;;;;5056176;28;20413;-62
2021/12/07 07:46:27;;;;;;;;;;;15.60;44.00;14.50;100472.00;;;;5074637;28;19971;-62
2021/12/07 07:49:13;;;;;;;;;;;15.60;44.00;14.50;100484.00;;;;5080830;28;20015;-62
2021/12/07 07:51:59;;;;;;;;;;;15.60;44.00;14.50;100468.00;;;;5062228;28;19920;-61
2021/12/07 07:54:45;;;;;;;;;;;15.60;44.00;14.50;100481.00;;;;5062491;28;19916;-62
2021/12/07 07:57:31;;;;;;;;;;;15.70;44.10;14.50;100495.00;;;;5067428;28;19920;-61
2021/12/07 08:00:17;;;;;;;;;;;15.60;44.00;14.50;100491.00;;;;5067790;28;19916;-62
2021/12/07 08:03:03;;;;;;;;;;;15.60;44.00;14.50;100491.00;;;;5044462;28;19924;-62
2021/12/07 08:05:49;;;;;;;;;;;15.60;44.00;14.50;100505.00;;;;5059084;28;19921;-62
2021/12/07 08:08:36;;;;;;;;;;;15.60;44.00;14.50;100512.00;;;;5064990;28;20151;-62
2021/12/07 08:11:22;;;;;;;;;;;15.60;44.00;14.50;100495.00;;;;5073716;28;19916;-62
2021/12/07 08:14:08;;;;;;;;;;;15.60;44.00;14.50;100500.00;;;;5040234;28;20393;-62
2021/12/07 08:16:54;;;;;;;;;;;15.60;44.00;14.50;100504.00;;;;5065811;28;20023;-61
2021/12/07 08:19:40;;;;;;;;;;;15.60;44.00;14.50;100486.00;;;;5087230;28;19916;-62
2021/12/07 08:22:29;;;;;;;;;;;15.60;44.00;14.50;100486.00;;;;5070926;28;19916;-61
2021/12/07 08:25:15;;;;;;;;;;;15.60;44.00;14.50;100474.00;;;;5069939;28;19963;-62
2021/12/07 08:28:01;;;;;;;;;;;15.60;44.00;14.50;100463.00;;;;5070470;28;20061;-62
2021/12/07 08:30:48;;;;;;;;;;;15.60;44.00;14.50;100473.00;;;;5077217;28;20418;-62
2021/12/07 08:33:34;;;;;;;;;;;15.60;44.00;14.50;100468.00;;;;5078141;28;19940;-61
2021/12/07 08:36:20;;;;;;;;;;;15.60;44.00;14.50;100466.00;;;;5066382;28;19916;-61
2021/12/07 08:39:07;;;;;;;;;;;15.60;44.00;14.50;100477.00;;;;5063173;28;20015;-62
2021/12/07 08:41:53;;;;;;;;;;;15.60;44.00;14.50;100470.00;;;;5075706;28;20150;-61
2021/12/07 08:44:39;;;;;;;;;;;15.60;44.00;14.50;100479.00;;;;5057506;28;19916;-61
2021/12/07 08:47:25;;;;;;;;;;;15.60;44.00;14.50;100481.00;;;;5060415;28;19921;-61
2021/12/07 08:50:22;;;;;;;;;;;15.60;44.00;14.50;100484.00;;;;5075830;28;20202;-61
2021/12/07 08:53:12;;;;;;;;;;;15.60;44.00;14.50;100490.00;;;;5057500;28;19924;-61
2021/12/07 09:02:08;;;;;;;;;;;15.60;44.00;14.50;100491.00;;;;5048187;28;20331;-61
2021/12/07 09:04:55;;;;;;;;;;;15.60;44.00;14.50;100492.00;;;;5069622;28;19920;-62
2021/12/07 09:07:41;;;;;;;;;;;15.60;44.00;14.50;100480.00;;;;5082344;28;20398;-61
2021/12/07 09:10:27;;;;;;;;;;;15.60;44.00;14.50;100477.00;;;;5062799;28;19932;-61
2021/12/07 09:13:13;;;;;;;;;;;15.60;44.00;14.50;100482.00;;;;5072302;28;20347;-61
2021/12/07 09:15:59;;;;;;;;;;;15.60;44.10;14.50;100468.00;;;;5077619;28;20283;-61
2021/12/07 09:18:45;;;;;;;;;;;15.70;44.10;14.50;100465.00;;;;5081064;28;19920;-62
2021/12/07 09:21:32;;;;;;;;;;;15.60;44.00;14.50;100465.00;;;;5062132;28;19919;-61
2021/12/07 09:24:18;;;;;;;;;;;15.60;44.10;14.50;100468.00;;;;5062837;28;19921;-61
2021/12/07 09:27:04;;;;;;;;;;;15.70;44.10;14.50;100476.00;;;;5070312;28;20007;-61
2021/12/07 09:29:50;;;;;;;;;;;15.70;44.10;14.50;100463.00;;;;5062729;28;20334;-61
2021/12/07 09:32:36;;;;;;;;;;;15.60;44.10;14.50;100472.00;;;;5075369;28;20331;-62
2021/12/07 09:35:23;;;;;;;;;;;15.60;44.10;14.50;100467.00;;;;5065437;28;20007;-61
2021/12/07 09:38:09;;;;;;;;;;;15.70;44.10;14.50;100472.00;;;;5072969;28;20491;-61
2021/12/07 09:40:55;;;;;;;;;;;15.60;44.10;14.50;100481.00;;;;5069196;28;20067;-62
2021/12/07 09:43:41;;;;;;;;;;;15.60;44.10;14.50;100491.00;;;;5059677;28;19920;-62
2021/12/07 09:46:27;;;;;;;;;;;15.60;44.10;14.50;100496.00;;;;5070299;28;20370;-62
2021/12/07 09:49:14;;;;;;;;;;;15.60;44.10;14.50;100499.00;;;;5082281;28;19917;-61
2021/12/07 09:52:00;;;;;;;;;;;15.60;44.10;14.40;100503.00;;;;5066114;28;19920;-62
2021/12/07 09:54:46;;;;;;;;;;;15.60;44.10;14.40;100515.00;;;;5038076;28;19971;-62
2021/12/07 09:57:32;;;;;;;;;;;15.60;44.20;14.40;100510.00;;;;5067729;28;19978;-62
2021/12/07 10:00:21;;;;;;;;;;;15.60;44.20;14.40;100522.00;;;;5066746;28;20526;-62
2021/12/07 10:03:07;;;;;;;;;;;15.60;44.20;14.40;100510.00;;;;5069679;28;19923;-62
2021/12/07 10:05:53;;;;;;;;;;;15.60;44.20;14.40;100519.00;;;;5067234;28;19963;-62
2021/12/07 10:08:39;;;;;;;;;;;15.60;44.20;14.40;100512.00;;;;5064308;28;20027;-61
2021/12/07 10:11:25;;;;;;;;;;;15.60;44.30;14.40;100515.00;;;;5053344;28;19923;-61
2021/12/07 10:14:11;;;;;;;;;;;15.60;44.30;14.40;100515.00;;;;5070197;28;19927;-62
2021/12/07 10:16:57;;;;;;;;;;;15.60;44.30;14.40;100518.00;;;;5065631;28;19916;-61
2021/12/07 10:19:45;;;;;;;;;;;15.60;44.40;14.40;100508.00;;;;5070915;28;20391;-62
2021/12/07 10:22:35;;;;;;;;;;;15.50;44.40;14.40;100512.00;;;;5057079;28;20205;-62
2021/12/07 10:25:26;;;;;;;;;;;15.60;44.40;14.40;100502.00;;;;5061409;28;20308;-62
2021/12/07 10:28:35;;;;;;;;;;;15.60;44.50;14.40;100504.00;;;;5057573;28;19928;-61
2021/12/07 10:31:42;;;;;;;;;;;15.60;44.40;14.30;100500.00;;;;5064653;28;19974;-62
2021/12/07 10:34:35;;;;;;;;;;;15.50;44.40;14.40;100504.00;;;;5078792;28;19916;-62
2021/12/07 10:37:21;;;;;;;;;;;15.50;44.40;14.30;100490.00;;;;5082218;28;20334;-62
2021/12/07 10:40:07;;;;;;;;;;;15.50;44.40;14.30;100489.00;;;;5046509;28;19928;-62
2021/12/07 10:42:53;;;;;;;;;;;15.50;44.40;14.30;100484.00;;;;5062215;28;20376;-61
2021/12/07 10:45:39;;;;;;;;;;;15.50;44.40;14.30;100495.00;;;;5074684;28;19916;-61
2021/12/07 10:48:25;;;;;;;;;;;15.50;44.40;14.30;100505.00;;;;5038744;28;19959;-62
2021/12/07 10:51:11;;;;;;;;;;;15.50;44.40;14.30;100502.00;;;;5077812;28;19948;-62
2021/12/07 10:53:57;;;;;;;;;;;15.50;44.50;14.30;100502.00;;;;5059408;28;19944;-62
2021/12/07 10:56:45;;;;;;;;;;;15.50;44.40;14.30;100508.00;;;;5069613;28;20381;-62
2021/12/07 10:59:32;;;;;;;;;;;15.50;44.50;14.30;100497.00;;;;5067248;28;19927;-62
2021/12/07 11:02:18;;;;;;;;;;;15.50;44.50;14.40;100502.00;;;;5078948;28;19998;-62
2021/12/07 11:05:09;;;;;;;;;;;15.50;44.50;14.40;100502.00;;;;5086725;28;20027;-62
2021/12/07 11:07:56;;;;;;;;;;;15.50;44.50;14.40;100509.00;;;;5065643;28;19924;-62
2021/12/07 11:10:47;;;;;;;;;;;15.50;44.50;14.30;100510.00;;;;5068881;28;19917;-62
2021/12/07 11:13:35;;;;;;;;;;;15.50;44.60;14.40;100514.00;;;;5080118;28;19917;-62
2021/12/07 11:16:21;;;;;;;;;;;15.50;44.60;14.40;100507.00;;;;5065717;28;19920;-62
2021/12/07 11:19:19;;;;;;;;;;;15.50;44.60;14.40;100498.00;;;;5070931;28;19999;-62
2021/12/07 11:22:06;;;;;;;;;;;15.60;44.60;14.40;100501.00;;;;5059890;28;19922;-62
2021/12/07 11:24:52;;;;;;;;;;;15.60;44.60;14.40;100498.00;;;;5078144;28;20385;-61
2021/12/07 11:30:50;;;;;;;;;;;15.60;44.60;14.30;100496.00;;;;5047020;28;20384;-62
2021/12/07 11:33:36;;;;;;;;;;;15.50;44.60;14.30;100483.00;;;;5064920;28;19916;-62
2021/12/07 11:36:28;;;;;;;;;;;15.50;44.60;14.30;100481.00;;;;5089583;28;19920;-62
2021/12/07 11:39:18;;;;;;;;;;;15.50;44.60;14.40;100487.00;;;;5056744;28;19920;-62
2021/12/07 11:42:09;;;;;;;;;;;15.50;44.60;14.40;100481.00;;;;5084758;28;19916;-62
2021/12/07 11:45:28;;;;;;;;;;;15.50;44.60;14.40;100477.00;;;;5066093;28;20015;-62
2021/12/07 11:48:14;;;;;;;;;;;15.50;44.70;14.30;100487.00;;;;5058039;28;20432;-62
2021/12/07 11:51:00;;;;;;;;;;;15.50;44.70;14.40;100479.00;;;;5062219;28;19916;-62
2021/12/07 11:53:48;;;;;;;;;;;15.50;44.70;14.40;100492.00;;;;5092415;28;19920;-62
2021/12/07 11:56:35;;;;;;;;;;;15.50;44.70;14.40;100477.00;;;;5085474;28;19917;-62
2021/12/07 11:59:21;;;;;;;;;;;15.50;44.70;14.40;100484.00;;;;5085321;28;19990;-62
2021/12/07 12:02:07;;;;;;;;;;;15.50;44.70;14.40;100491.00;;;;5071895;28;19952;-62
2021/12/07 12:04:53;;;;;;;;;;;15.60;44.70;14.40;100475.00;;;;5078087;28;19924;-62
2021/12/07 12:07:42;;;;;;;;;;;15.60;44.70;14.40;100470.00;;;;5075964;28;19921;-61
2021/12/07 12:10:29;;;;;;;;;;;15.60;44.80;14.40;100466.00;;;;5063519;28;19971;-62
2021/12/07 12:13:34;;;;;;;;;;;15.50;44.70;14.40;100456.00;;;;5052915;28;19920;-62
2021/12/07 12:16:20;;;;;;;;;;;15.60;44.70;14.40;100458.00;;;;5066132;28;20463;-62
2021/12/07 12:19:47;;;;;;;;;;;15.60;44.70;14.40;100458.00;;;;5060363;28;19930;-62
2021/12/07 12:23:18;;;;;;;;;;;15.60;44.80;14.40;100456.00;;;;5054712;28;19938;-61
2021/12/07 12:26:08;;;;;;;;;;;15.60;44.80;14.40;100466.00;;;;5046815;28;19964;-62
2021/12/07 12:28:55;;;;;;;;;;;15.50;44.70;14.40;100461.00;;;;5057959;28;19923;-62
2021/12/07 12:31:44;;;;;;;;;;;15.60;44.80;14.40;100465.00;;;;5073566;28;19924;-61
2021/12/07 12:34:32;;;;;;;;;;;15.50;44.80;14.40;100461.00;;;;5066131;28;19917;-62
2021/12/07 12:37:21;;;;;;;;;;;15.60;44.80;14.40;100459.00;;;;5074959;28;19916;-62
2021/12/07 12:40:31;;;;;;;;;;;15.60;44.80;14.40;100464.00;;;;5063875;28;19942;-62
2021/12/07 12:43:39;;;;;;;;;;;15.60;44.80;14.40;100460.00;;;;5060658;28;19923;-62
2021/12/07 12:46:28;;;;;;;;;;;15.60;44.80;14.40;100462.00;;;;5073913;28;19942;-62
2021/12/07 12:49:15;;;;;;;;;;;15.50;44.70;14.40;100451.00;;;;5067693;28;19956;-61
2021/12/07 12:52:01;;;;;;;;;;;15.60;44.80;14.40;100449.00;;;;5048938;28;19931;-62
2021/12/07 12:54:47;;;;;;;;;;;15.50;44.80;14.40;100450.00;;;;5067203;28;20282;-62
2021/12/07 12:57:34;;;;;;;;;;;15.60;44.80;14.40;100450.00;;;;5065602;28;19935;-62
2021/12/07 13:00:21;;;;;;;;;;;15.60;44.80;14.40;100451.00;;;;5045574;28;19920;-62
2021/12/07 13:03:08;;;;;;;;;;;15.60;44.80;14.40;100443.00;;;;5062956;28;19917;-62
2021/12/07 13:06:01;;;;;;;;;;;15.50;44.70;14.40;100448.00;;;;5049404;28;19965;-62
2021/12/07 13:08:58;;;;;;;;;;;15.60;44.80;14.40;100443.00;;;;5072215;28;19927;-62
2021/12/07 13:11:47;;;;;;;;;;;15.50;44.80;14.40;100450.00;;;;5060728;28;19932;-62
2021/12/07 13:14:37;;;;;;;;;;;15.50;44.80;14.40;100447.00;;;;5065320;28;19928;-62
2021/12/07 13:17:26;;;;;;;;;;;15.50;44.80;14.40;100437.00;;;;5071377;28;19920;-62
2021/12/07 13:20:24;;;;;;;;;;;15.60;44.90;14.40;100422.00;;;;5070839;28;19916;-62
2021/12/07 13:23:12;;;;;;;;;;;15.60;44.80;14.40;100427.00;;;;5065869;28;19927;-62
2021/12/07 13:25:58;;;;;;;;;;;15.60;44.80;14.40;100417.00;;;;5072968;28;19962;-62
2021/12/07 13:28:44;;;;;;;;;;;15.60;44.80;14.40;100425.00;;;;5067153;28;19928;-62
2021/12/07 13:31:45;;;;;;;;;;;15.60;44.80;14.40;100426.00;;;;5059355;28;19970;-62
2021/12/07 13:34:34;;;;;;;;;;;15.60;44.80;14.50;100425.00;;;;5078817;28;20018;-62
2021/12/07 13:37:20;;;;;;;;;;;15.60;44.80;14.50;100421.00;;;;5065582;28;20011;-62
2021/12/07 13:40:07;;;;;;;;;;;15.60;44.80;14.50;100430.00;;;;5062685;28;20011;-62
2021/12/07 13:42:53;;;;;;;;;;;15.60;44.80;14.50;100423.00;;;;5062262;28;19982;-62
2021/12/07 13:45:39;;;;;;;;;;;15.60;44.80;14.50;100412.00;;;;5057118;28;19973;-62
2021/12/07 13:48:25;;;;;;;;;;;15.60;44.80;14.50;100406.00;;;;5061054;28;19920;-62
2021/12/07 13:51:12;;;;;;;;;;;15.60;44.80;14.50;100402.00;;;;5063055;28;19920;-62
2021/12/07 13:54:00;;;;;;;;;;;15.60;44.80;14.50;100401.00;;;;5056880;28;19948;-61
2021/12/07 13:56:47;;;;;;;;;;;15.60;44.80;14.50;100396.00;;;;5042952;28;19920;-62
2021/12/07 13:59:33;;;;;;;;;;;15.60;44.80;14.50;100381.00;;;;5056539;28;20366;-61
2021/12/07 14:02:22;;;;;;;;;;;15.60;44.80;14.50;100381.00;;;;5077585;28;19916;-62
2021/12/07 14:05:12;;;;;;;;;;;15.70;44.80;14.50;100368.00;;;;5039867;28;19954;-61
2021/12/07 14:08:03;;;;;;;;;;;15.70;44.80;14.50;100365.00;;;;5069299;28;19925;-62
2021/12/07 14:10:51;;;;;;;;;;;15.60;44.70;14.50;100364.00;;;;5046424;28;19963;-62
2021/12/07 14:13:45;;;;;;;;;;;15.70;44.80;14.50;100363.00;;;;5064288;28;20416;-62
2021/12/07 14:16:31;;;;;;;;;;;15.70;44.80;14.50;100360.00;;;;5039520;28;19963;-61
2021/12/07 14:19:18;;;;;;;;;;;15.70;44.80;14.50;100355.00;;;;5056267;28;19917;-62
2021/12/07 14:22:04;;;;;;;;;;;15.70;44.80;14.50;100353.00;;;;5064682;28;20320;-62
2021/12/07 14:24:53;;;;;;;;;;;15.70;44.80;14.50;100341.00;;;;5054928;28;19969;-62
2021/12/07 14:27:39;;;;;;;;;;;15.70;44.80;14.50;100345.00;;;;5065898;28;20126;-61
2021/12/07 14:30:25;;;;;;;;;;;15.70;44.80;14.50;100343.00;;;;5056219;28;19920;-63
2021/12/07 14:33:11;;;;;;;;;;;15.70;44.80;14.50;100333.00;;;;5068182;28;19924;-61
2021/12/07 14:35:58;;;;;;;;;;;15.70;44.70;14.50;100336.00;;;;5081809;28;20453;-62
2021/12/07 14:38:49;;;;;;;;;;;15.70;44.70;14.60;100320.00;;;;5085410;28;19924;-61
2021/12/07 14:41:44;;;;;;;;;;;15.70;44.80;14.60;100316.00;;;;5093455;28;20358;-61
2021/12/07 14:44:36;;;;;;;;;;;15.70;44.70;14.60;100313.00;;;;5067074;28;19967;-61
2021/12/07 14:47:22;;;;;;;;;;;15.70;44.70;14.60;100306.00;;;;5095511;28;20454;-61
2021/12/07 14:50:08;;;;;;;;;;;15.70;44.70;14.60;100307.00;;;;5076675;28;19950;-61
2021/12/07 14:52:54;;;;;;;;;;;15.80;44.80;14.60;100305.00;;;;5079589;28;19927;-62
2021/12/07 14:55:40;;;;;;;;;;;15.80;44.70;14.60;100291.00;;;;5085885;28;19977;-62
2021/12/07 14:58:33;;;;;;;;;;;15.80;45.40;14.60;100281.00;;;;5073725;28;19917;-62
2021/12/07 15:01:25;;;;;;;;;;;15.80;44.70;14.60;100280.00;;;;5097481;28;19917;-61
2021/12/07 15:04:12;;;;;;;;;;;15.80;44.70;14.60;100279.00;;;;5074524;28;19974;-61
2021/12/07 15:07:03;;;;;;;;;;;15.80;44.70;14.60;100273.00;;;;5075565;28;19981;-61
2021/12/07 15:09:49;;;;;;;;;;;15.80;44.80;14.60;100276.00;;;;5082850;28;20432;-62
2021/12/07 15:12:40;;;;;;;;;;;15.80;44.70;14.60;100271.00;;;;5084739;28;19952;-62
2021/12/07 15:15:27;;;;;;;;;;;15.80;44.70;14.70;100272.00;;;;5089929;28;20436;-67